createdAt,value
2022-12-31T00:00:07.764Z,1002.12
2022-12-31T00:01:07.626Z,1002.10
2022-12-31T00:02:07.664Z,1002.10
2022-12-31T00:03:07.692Z,1002.08
2022-12-31T00:04:07.788Z,1002.17
2022-12-31T00:05:07.621Z,1002.16
2022-12-31T00:06:07.562Z,1002.18
2022-12-31T00:07:07.554Z,1002.17
2022-12-31T00:08:07.546Z,1002.20
2022-12-31T00:09:07.583Z,1002.17
2022-12-31T00:10:07.531Z,1002.10
2022-12-31T00:11:07.546Z,1002.16
2022-12-31T00:12:07.492Z,1002.23
2022-12-31T00:13:07.484Z,1002.21
2022-12-31T00:14:07.847Z,1002.24
2022-12-31T00:15:07.523Z,1002.23
2022-12-31T00:16:12.017Z,1002.24
2022-12-31T00:17:07.530Z,1002.21
2022-12-31T00:18:07.443Z,1002.20
2022-12-31T00:19:07.449Z,1002.27
2022-12-31T00:20:07.418Z,1002.25
2022-12-31T00:21:07.407Z,1002.28
2022-12-31T00:22:07.391Z,1002.29
2022-12-31T00:23:07.378Z,1002.30
2022-12-31T00:24:07.386Z,1002.29
2022-12-31T00:25:07.418Z,1002.34
2022-12-31T00:26:07.378Z,1002.30
2022-12-31T00:27:07.354Z,1002.33
2022-12-31T00:28:07.341Z,1002.35
2022-12-31T00:29:07.321Z,1002.43
2022-12-31T00:30:07.326Z,1002.48
2022-12-31T00:31:07.326Z,1002.49
2022-12-31T00:32:07.289Z,1002.48
2022-12-31T00:33:07.291Z,1002.41
2022-12-31T00:34:07.496Z,1002.44
2022-12-31T00:35:07.294Z,1002.50
2022-12-31T00:36:07.242Z,1002.54
2022-12-31T00:37:07.248Z,1002.47
2022-12-31T00:38:07.221Z,1002.47
2022-12-31T00:39:07.219Z,1002.47
2022-12-31T00:40:07.311Z,1002.51
2022-12-31T00:41:07.208Z,1002.51
2022-12-31T00:42:07.192Z,1002.52
2022-12-31T00:43:07.192Z,1002.58
2022-12-31T00:44:07.167Z,1002.51
2022-12-31T00:45:07.152Z,1002.51
2022-12-31T00:46:07.141Z,1002.52
2022-12-31T00:47:07.167Z,1002.54
2022-12-31T00:48:07.099Z,1002.50
2022-12-31T00:49:07.122Z,1002.55
2022-12-31T00:50:07.094Z,1002.51
2022-12-31T00:51:07.085Z,1002.49
2022-12-31T00:52:07.059Z,1002.49
2022-12-31T00:53:07.057Z,1002.52
2022-12-31T00:54:07.059Z,1002.54
2022-12-31T00:55:07.030Z,1002.55
2022-12-31T00:56:07.031Z,1002.54
2022-12-31T00:57:07.012Z,1002.53
2022-12-31T00:58:07.000Z,1002.58
2022-12-31T00:59:07.060Z,1002.56
2022-12-31T01:00:06.992Z,1002.49
2022-12-31T01:01:07.069Z,1002.55
2022-12-31T01:02:07.077Z,1002.57
2022-12-31T01:03:07.111Z,1002.62
2022-12-31T01:04:06.942Z,1002.67
2022-12-31T01:05:06.917Z,1002.63
2022-12-31T01:06:06.929Z,1002.69
2022-12-31T01:07:06.924Z,1002.69
2022-12-31T01:08:06.928Z,1002.70
2022-12-31T01:09:06.916Z,1002.73
2022-12-31T01:10:06.868Z,1002.73
2022-12-31T01:11:06.871Z,1002.74
2022-12-31T01:12:06.877Z,1002.77
2022-12-31T01:13:06.844Z,1002.82
2022-12-31T01:14:06.819Z,1002.83
2022-12-31T01:15:06.810Z,1002.86
2022-12-31T01:16:06.830Z,1002.82
2022-12-31T01:17:06.817Z,1002.86
2022-12-31T01:18:06.780Z,1002.86
2022-12-31T01:19:06.780Z,1002.84
2022-12-31T01:20:06.757Z,1002.91
2022-12-31T01:21:06.756Z,1002.91
2022-12-31T01:22:06.750Z,1002.94
2022-12-31T01:23:06.732Z,1002.89
2022-12-31T01:24:06.718Z,1002.98
2022-12-31T01:25:06.727Z,1002.95
2022-12-31T01:26:06.725Z,1002.96
2022-12-31T01:27:06.700Z,1002.94
2022-12-31T01:28:06.679Z,1002.98
2022-12-31T01:29:06.679Z,1003.00
2022-12-31T01:30:06.636Z,1002.99
2022-12-31T01:31:06.669Z,1002.97
2022-12-31T01:32:06.655Z,1002.97
2022-12-31T01:33:06.631Z,1002.99
2022-12-31T01:34:06.611Z,1003.00
2022-12-31T01:35:06.603Z,1003.07
2022-12-31T01:36:06.609Z,1003.06
2022-12-31T01:37:06.568Z,1003.11
2022-12-31T01:38:06.579Z,1003.14
2022-12-31T01:39:06.544Z,1003.09
2022-12-31T01:40:06.540Z,1003.11
2022-12-31T01:41:06.536Z,1003.10
2022-12-31T01:42:06.524Z,1003.11
2022-12-31T01:43:06.497Z,1003.06
2022-12-31T01:44:06.530Z,1003.03
2022-12-31T01:45:06.497Z,1003.05
2022-12-31T01:46:06.509Z,1003.06
2022-12-31T01:47:06.455Z,1003.08
2022-12-31T01:48:06.463Z,1003.12
2022-12-31T01:49:06.443Z,1003.10
2022-12-31T01:50:06.460Z,1003.07
2022-12-31T01:51:06.411Z,1003.04
2022-12-31T01:52:06.407Z,1003.11
2022-12-31T01:53:06.381Z,1003.11
2022-12-31T01:54:06.386Z,1003.12
2022-12-31T01:55:06.374Z,1003.12
2022-12-31T01:56:06.377Z,1003.16
2022-12-31T01:57:06.349Z,1003.20
2022-12-31T01:58:06.328Z,1003.19
2022-12-31T01:59:06.337Z,1003.17
2022-12-31T02:00:06.344Z,1003.16
2022-12-31T02:01:06.646Z,1003.14
2022-12-31T02:02:06.429Z,1003.14
2022-12-31T02:03:06.315Z,1003.12
2022-12-31T02:04:06.275Z,1003.14
2022-12-31T02:05:06.270Z,1003.17
2022-12-31T02:06:06.254Z,1003.13
2022-12-31T02:07:06.256Z,1003.16
2022-12-31T02:08:06.243Z,1003.13
2022-12-31T02:09:06.224Z,1003.16
2022-12-31T02:10:06.202Z,1003.16
2022-12-31T02:11:06.241Z,1003.17
2022-12-31T02:12:06.185Z,1003.18
2022-12-31T02:13:06.206Z,1003.18
2022-12-31T02:14:06.160Z,1003.18
2022-12-31T02:15:06.163Z,1003.20
2022-12-31T02:16:06.179Z,1003.19
2022-12-31T02:17:06.140Z,1003.21
2022-12-31T02:18:06.125Z,1003.22
2022-12-31T02:19:06.106Z,1003.22
2022-12-31T02:20:06.108Z,1003.23
2022-12-31T02:21:06.134Z,1003.22
2022-12-31T02:22:06.089Z,1003.27
2022-12-31T02:23:06.088Z,1003.33
2022-12-31T02:24:06.059Z,1003.44
2022-12-31T02:25:06.049Z,1003.45
2022-12-31T02:26:06.044Z,1003.47
2022-12-31T02:27:06.009Z,1003.46
2022-12-31T02:28:06.033Z,1003.41
2022-12-31T02:29:05.989Z,1003.39
2022-12-31T02:30:05.983Z,1003.42
2022-12-31T02:31:06.057Z,1003.41
2022-12-31T02:32:05.959Z,1003.36
2022-12-31T02:33:06.050Z,1003.38
2022-12-31T02:34:06.299Z,1003.36
2022-12-31T02:35:06.189Z,1003.34
2022-12-31T02:36:05.919Z,1003.31
2022-12-31T02:37:05.919Z,1003.32
2022-12-31T02:38:05.965Z,1003.34
2022-12-31T02:39:05.904Z,1003.32
2022-12-31T02:40:05.895Z,1003.25
2022-12-31T02:41:06.552Z,1003.26
2022-12-31T02:42:05.888Z,1003.22
2022-12-31T02:43:05.856Z,1003.15
2022-12-31T02:44:05.872Z,1003.12
2022-12-31T02:45:05.827Z,1003.12
2022-12-31T02:46:06.754Z,1003.09
2022-12-31T02:47:05.795Z,1003.07
2022-12-31T02:48:05.780Z,1003.06
2022-12-31T02:49:05.916Z,1003.03
2022-12-31T02:50:05.775Z,1003.03
2022-12-31T02:51:05.761Z,1003.05
2022-12-31T02:52:05.735Z,1003.07
2022-12-31T02:53:05.754Z,1003.11
2022-12-31T02:54:05.725Z,1003.13
2022-12-31T02:55:05.738Z,1003.09
2022-12-31T02:56:05.702Z,1003.05
2022-12-31T02:57:05.711Z,1003.02
2022-12-31T02:58:05.684Z,1003.04
2022-12-31T02:59:05.670Z,1003.01
2022-12-31T03:00:05.681Z,1003.00
2022-12-31T03:01:05.813Z,1003.01
2022-12-31T03:02:05.649Z,1003.04
2022-12-31T03:03:05.621Z,1003.11
2022-12-31T03:04:05.643Z,1003.11
2022-12-31T03:05:05.638Z,1003.16
2022-12-31T03:06:05.607Z,1003.14
2022-12-31T03:07:05.588Z,1003.14
2022-12-31T03:08:05.567Z,1003.16
2022-12-31T03:09:05.550Z,1003.15
2022-12-31T03:10:05.535Z,1003.13
2022-12-31T03:11:05.541Z,1003.11
2022-12-31T03:12:05.531Z,1003.15
2022-12-31T03:13:05.536Z,1003.08
2022-12-31T03:14:05.510Z,1003.14
2022-12-31T03:15:05.496Z,1003.09
2022-12-31T03:16:05.570Z,1003.15
2022-12-31T03:17:05.470Z,1003.16
2022-12-31T03:18:05.457Z,1003.12
2022-12-31T03:19:05.444Z,1003.10
2022-12-31T03:20:05.471Z,1003.09
2022-12-31T03:21:05.461Z,1003.07
2022-12-31T03:22:05.407Z,1003.17
2022-12-31T03:23:05.546Z,1003.12
2022-12-31T03:24:05.445Z,1003.07
2022-12-31T03:25:05.412Z,1003.06
2022-12-31T03:26:05.354Z,1003.14
2022-12-31T03:27:05.451Z,1003.09
2022-12-31T03:28:05.337Z,1003.06
2022-12-31T03:29:05.338Z,1003.03
2022-12-31T03:30:05.333Z,1003.04
2022-12-31T03:31:05.379Z,1003.04
2022-12-31T03:32:05.313Z,1003.03
2022-12-31T03:33:05.342Z,1003.09
2022-12-31T03:34:05.377Z,1003.03
2022-12-31T03:35:05.277Z,1003.09
2022-12-31T03:36:05.287Z,1003.07
2022-12-31T03:37:05.744Z,1003.08
2022-12-31T03:38:05.245Z,1003.05
2022-12-31T03:39:05.247Z,1003.07
2022-12-31T03:40:05.288Z,1003.05
2022-12-31T03:41:05.234Z,1002.99
2022-12-31T03:42:05.208Z,1003.01
2022-12-31T03:43:05.188Z,1003.03
2022-12-31T03:44:05.163Z,1003.11
2022-12-31T03:45:05.156Z,1003.04
2022-12-31T03:46:05.186Z,1003.06
2022-12-31T03:47:05.149Z,1003.03
2022-12-31T03:48:05.133Z,1002.99
2022-12-31T03:49:05.146Z,1003.04
2022-12-31T03:50:05.090Z,1003.01
2022-12-31T03:51:05.106Z,1002.98
2022-12-31T03:52:05.074Z,1002.97
2022-12-31T03:53:05.072Z,1002.97
2022-12-31T03:54:05.057Z,1002.88
2022-12-31T03:55:05.053Z,1002.84
2022-12-31T03:56:05.039Z,1002.80
2022-12-31T03:57:05.023Z,1002.82
2022-12-31T03:58:05.004Z,1002.81
2022-12-31T03:59:05.064Z,1002.84
2022-12-31T04:00:04.995Z,1002.80
2022-12-31T04:01:05.144Z,1002.91
2022-12-31T04:02:05.058Z,1002.91
2022-12-31T04:03:04.989Z,1002.91
2022-12-31T04:04:04.964Z,1002.86
2022-12-31T04:05:04.972Z,1002.78
2022-12-31T04:06:04.936Z,1002.74
2022-12-31T04:07:04.914Z,1002.75
2022-12-31T04:08:04.911Z,1002.73
2022-12-31T04:09:04.920Z,1002.72
2022-12-31T04:10:04.965Z,1002.72
2022-12-31T04:11:04.892Z,1002.68
2022-12-31T04:12:04.901Z,1002.66
2022-12-31T04:13:05.048Z,1002.65
2022-12-31T04:14:04.854Z,1002.69
2022-12-31T04:15:04.831Z,1002.69
2022-12-31T04:16:04.843Z,1002.65
2022-12-31T04:17:04.857Z,1002.61
2022-12-31T04:18:04.794Z,1002.66
2022-12-31T04:19:04.800Z,1002.76
2022-12-31T04:20:04.804Z,1002.74
2022-12-31T04:21:04.781Z,1002.72
2022-12-31T04:22:04.769Z,1002.80
2022-12-31T04:23:04.773Z,1002.81
2022-12-31T04:24:04.721Z,1002.69
2022-12-31T04:25:04.739Z,1002.72
2022-12-31T04:26:04.726Z,1002.62
2022-12-31T04:27:07.903Z,1002.72
2022-12-31T04:28:04.689Z,1002.72
2022-12-31T04:29:04.702Z,1002.63
2022-12-31T04:30:04.673Z,1002.66
2022-12-31T04:31:04.673Z,1002.72
2022-12-31T04:32:04.685Z,1002.76
2022-12-31T04:33:04.644Z,1002.80
2022-12-31T04:34:04.673Z,1002.74
2022-12-31T04:35:04.636Z,1002.79
2022-12-31T04:36:04.601Z,1002.70
2022-12-31T04:37:04.612Z,1002.73
2022-12-31T04:38:04.596Z,1002.80
2022-12-31T04:39:04.573Z,1002.83
2022-12-31T04:40:06.590Z,1002.82
2022-12-31T04:41:04.565Z,1002.84
2022-12-31T04:42:04.536Z,1002.85
2022-12-31T04:43:04.593Z,1002.85
2022-12-31T04:44:04.507Z,1002.81
2022-12-31T04:45:04.542Z,1002.83
2022-12-31T04:46:04.558Z,1002.82
2022-12-31T04:47:04.491Z,1002.75
2022-12-31T04:48:04.501Z,1002.72
2022-12-31T04:49:04.524Z,1002.67
2022-12-31T04:53:59.404Z,1002.52
2022-12-31T04:54:52.258Z,1002.53
2022-12-31T04:55:50.350Z,1002.51
2022-12-31T04:57:00.608Z,1002.52
2022-12-31T04:57:59.923Z,1002.53
2022-12-31T05:05:25.075Z,1002.39
2022-12-31T05:06:11.553Z,1002.34
2022-12-31T05:07:14.208Z,1002.28
2022-12-31T05:13:49.323Z,1002.40
2022-12-31T05:13:59.039Z,1002.33
2022-12-31T05:16:20.574Z,1002.30
2022-12-31T05:20:34.876Z,1002.32
2022-12-31T05:21:34.199Z,1002.32
2022-12-31T05:55:23.913Z,1002.24
2022-12-31T05:55:52.223Z,1002.08
2022-12-31T05:56:43.564Z,1002.15
2022-12-31T06:02:22.133Z,1002.12
2022-12-31T06:02:46.408Z,1002.07
2022-12-31T06:07:55.621Z,1001.98
2022-12-31T06:08:56.185Z,1002.00
2022-12-31T06:10:12.606Z,1001.96
2022-12-31T06:15:16.645Z,1001.81
2022-12-31T06:16:06.758Z,1001.83
2022-12-31T06:21:38.435Z,1001.75
2022-12-31T06:27:32.917Z,1001.65
2022-12-31T06:28:41.304Z,1001.68
2022-12-31T06:29:30.262Z,1001.68
2022-12-31T06:32:01.431Z,1001.61
2022-12-31T06:32:30.371Z,1001.63
2022-12-31T06:33:32.045Z,1001.60
2022-12-31T06:34:30.831Z,1001.63
2022-12-31T06:35:31.355Z,1001.64
2022-12-31T06:36:30.734Z,1001.71
2022-12-31T06:37:30.360Z,1001.74
2022-12-31T06:38:31.609Z,1001.75
2022-12-31T06:39:30.234Z,1001.73
2022-12-31T06:40:30.097Z,1001.73
2022-12-31T06:41:30.163Z,1001.72
2022-12-31T06:42:30.173Z,1001.67
2022-12-31T06:43:30.454Z,1001.74
2022-12-31T06:44:33.043Z,1001.66
2022-12-31T06:45:30.943Z,1001.70
2022-12-31T06:46:31.557Z,1001.75
2022-12-31T06:47:30.326Z,1001.69
2022-12-31T06:48:30.179Z,1001.73
2022-12-31T06:49:32.173Z,1001.64
2022-12-31T06:50:31.498Z,1001.68
2022-12-31T06:51:31.715Z,1001.63
2022-12-31T06:52:31.564Z,1001.58
2022-12-31T06:53:29.961Z,1001.63
2022-12-31T06:54:32.885Z,1001.69
2022-12-31T06:55:32.498Z,1001.69
2022-12-31T06:57:01.360Z,1001.71
2022-12-31T06:57:32.330Z,1001.67
2022-12-31T06:58:32.905Z,1001.72
2022-12-31T06:59:33.376Z,1001.73
2022-12-31T07:00:33.522Z,1001.73
2022-12-31T07:01:32.248Z,1001.77
2022-12-31T07:02:31.864Z,1001.76
2022-12-31T07:03:32.328Z,1001.71
2022-12-31T07:04:30.524Z,1001.75
2022-12-31T07:15:49.575Z,1001.69
2022-12-31T07:16:00.283Z,1001.59
2022-12-31T07:17:19.180Z,1001.64
2022-12-31T07:17:56.814Z,1001.64
2022-12-31T07:19:09.779Z,1001.54
2022-12-31T07:19:58.068Z,1001.59
2022-12-31T07:20:54.988Z,1001.59
2022-12-31T07:21:59.911Z,1001.62
2022-12-31T07:22:54.359Z,1001.66
2022-12-31T07:23:56.436Z,1001.59
2022-12-31T07:29:19.405Z,1001.57
2022-12-31T07:29:41.617Z,1001.57
2022-12-31T07:34:51.855Z,1001.61
2022-12-31T07:35:40.776Z,1001.64
2022-12-31T07:36:40.345Z,1001.62
2022-12-31T07:37:40.107Z,1001.67
2022-12-31T07:38:52.507Z,1001.57
2022-12-31T07:44:51.661Z,1001.70
2022-12-31T07:45:48.003Z,1001.57
2022-12-31T07:46:46.416Z,1001.53
2022-12-31T07:47:46.248Z,1001.56
2022-12-31T07:48:47.104Z,1001.59
2022-12-31T07:49:46.683Z,1001.59
2022-12-31T07:50:46.296Z,1001.63
2022-12-31T07:51:46.510Z,1001.64
2022-12-31T07:52:46.683Z,1001.69
2022-12-31T07:53:46.498Z,1001.61
2022-12-31T07:54:46.183Z,1001.64
2022-12-31T07:55:46.279Z,1001.56
2022-12-31T07:56:46.052Z,1001.58
2022-12-31T07:57:46.225Z,1001.74
2022-12-31T07:58:46.172Z,1001.84
2022-12-31T07:59:46.083Z,1001.79
2022-12-31T08:00:46.159Z,1001.83
2022-12-31T08:01:46.345Z,1001.90
2022-12-31T08:02:46.599Z,1001.90
2022-12-31T08:07:52.987Z,1001.99
2022-12-31T08:08:52.493Z,1001.93
2022-12-31T08:09:52.481Z,1001.84
2022-12-31T08:10:52.899Z,1001.83
2022-12-31T08:11:54.314Z,1001.74
2022-12-31T08:12:52.588Z,1001.81
2022-12-31T08:13:52.596Z,1001.89
2022-12-31T08:16:03.922Z,1001.89
2022-12-31T08:16:52.429Z,1001.85
2022-12-31T08:17:52.496Z,1001.79
2022-12-31T08:18:53.290Z,1001.82
2022-12-31T08:19:52.366Z,1001.78
2022-12-31T08:20:52.354Z,1001.83
2022-12-31T08:21:52.357Z,1001.86
2022-12-31T08:22:52.371Z,1001.90
2022-12-31T08:23:52.307Z,1002.02
2022-12-31T08:24:52.341Z,1001.87
2022-12-31T08:25:52.302Z,1001.76
2022-12-31T08:26:53.302Z,1001.84
2022-12-31T08:27:52.313Z,1001.87
2022-12-31T08:28:52.313Z,1001.80
2022-12-31T08:29:52.248Z,1001.81
2022-12-31T08:30:52.264Z,1001.86
2022-12-31T08:31:52.267Z,1001.85
2022-12-31T08:32:52.208Z,1001.80
2022-12-31T08:33:52.217Z,1001.95
2022-12-31T08:34:52.215Z,1001.91
2022-12-31T08:35:52.158Z,1001.82
2022-12-31T08:36:52.171Z,1001.92
2022-12-31T08:37:52.167Z,1001.87
2022-12-31T08:38:52.176Z,1001.87
2022-12-31T08:39:52.167Z,1001.83
2022-12-31T08:40:52.267Z,1001.90
2022-12-31T08:41:52.775Z,1001.80
2022-12-31T08:42:52.261Z,1001.80
2022-12-31T08:43:52.160Z,1001.84
2022-12-31T08:44:52.123Z,1001.94
2022-12-31T08:45:52.176Z,1001.95
2022-12-31T08:46:52.242Z,1001.99
2022-12-31T08:47:57.990Z,1001.95
2022-12-31T08:48:53.102Z,1002.01
2022-12-31T08:49:52.049Z,1002.00
2022-12-31T08:50:52.112Z,1002.03
2022-12-31T08:51:52.030Z,1001.99
2022-12-31T08:52:52.002Z,1001.98
2022-12-31T08:53:52.007Z,1001.93
2022-12-31T08:54:52.029Z,1001.89
2022-12-31T08:55:51.986Z,1001.98
2022-12-31T08:56:51.966Z,1001.98
2022-12-31T08:57:51.915Z,1001.97
2022-12-31T08:58:51.959Z,1001.95
2022-12-31T08:59:51.886Z,1001.96
2022-12-31T09:00:51.969Z,1001.90
2022-12-31T09:01:52.299Z,1001.94
2022-12-31T09:02:53.028Z,1001.99
2022-12-31T09:03:52.060Z,1001.97
2022-12-31T09:04:52.047Z,1001.97
2022-12-31T09:05:51.911Z,1002.04
2022-12-31T09:06:51.833Z,1001.92
2022-12-31T09:07:51.972Z,1001.87
2022-12-31T09:08:51.948Z,1001.84
2022-12-31T09:09:52.742Z,1001.94
2022-12-31T09:11:03.041Z,1001.89
2022-12-31T09:11:52.117Z,1001.90
2022-12-31T09:12:51.976Z,1001.91
2022-12-31T09:13:51.916Z,1001.97
2022-12-31T09:14:51.989Z,1002.07
2022-12-31T09:15:52.064Z,1001.98
2022-12-31T09:16:51.831Z,1002.10
2022-12-31T09:17:52.027Z,1002.04
2022-12-31T09:18:53.413Z,1002.14
2022-12-31T09:19:52.230Z,1002.05
2022-12-31T09:20:52.025Z,1002.05
2022-12-31T09:21:51.912Z,1002.02
2022-12-31T09:23:02.268Z,1002.01
2022-12-31T09:23:51.836Z,1001.93
2022-12-31T09:24:51.844Z,1001.95
2022-12-31T09:25:51.726Z,1001.97
2022-12-31T09:26:52.345Z,1001.97
2022-12-31T09:28:02.943Z,1002.04
2022-12-31T09:28:52.377Z,1001.97
2022-12-31T09:29:52.351Z,1002.00
2022-12-31T09:30:52.060Z,1002.01
2022-12-31T09:31:52.422Z,1002.01
2022-12-31T09:32:56.875Z,1002.12
2022-12-31T09:33:54.465Z,1002.16
2022-12-31T09:34:51.905Z,1002.12
2022-12-31T09:35:51.940Z,1002.10
2022-12-31T09:36:51.828Z,1002.00
2022-12-31T09:37:51.590Z,1002.02
2022-12-31T09:38:51.518Z,1002.02
2022-12-31T09:39:51.516Z,1001.96
2022-12-31T09:40:51.503Z,1001.95
2022-12-31T09:41:51.502Z,1002.00
2022-12-31T09:42:51.512Z,1002.04
2022-12-31T09:43:54.558Z,1001.99
2022-12-31T09:44:52.477Z,1002.08
2022-12-31T09:45:51.482Z,1002.09
2022-12-31T09:46:51.419Z,1002.07
2022-12-31T09:47:51.418Z,1002.12
2022-12-31T09:48:51.462Z,1002.08
2022-12-31T09:49:51.402Z,1002.06
2022-12-31T09:50:51.451Z,1002.08
2022-12-31T09:51:51.376Z,1001.99
2022-12-31T09:52:51.388Z,1001.99
2022-12-31T09:53:51.348Z,1002.04
2022-12-31T09:54:51.359Z,1001.94
2022-12-31T09:55:51.327Z,1001.91
2022-12-31T09:56:57.136Z,1001.95
2022-12-31T09:57:52.803Z,1001.92
2022-12-31T09:58:51.343Z,1001.85
2022-12-31T09:59:51.326Z,1001.85
2022-12-31T10:00:51.317Z,1001.84
2022-12-31T10:01:51.493Z,1001.87
2022-12-31T10:02:51.444Z,1001.85
2022-12-31T10:03:51.314Z,1001.79
2022-12-31T10:04:51.597Z,1001.82
2022-12-31T10:05:51.321Z,1001.83
2022-12-31T10:06:51.250Z,1001.78
2022-12-31T10:07:53.569Z,1001.76
2022-12-31T10:08:51.187Z,1001.73
2022-12-31T10:09:51.166Z,1001.75
2022-12-31T10:10:51.372Z,1001.81
2022-12-31T10:11:51.168Z,1001.79
2022-12-31T10:12:51.147Z,1001.80
2022-12-31T10:13:51.146Z,1001.84
2022-12-31T10:14:51.942Z,1001.84
2022-12-31T10:15:51.160Z,1001.80
2022-12-31T10:16:51.346Z,1001.78
2022-12-31T10:17:51.152Z,1001.83
2022-12-31T10:18:51.064Z,1001.83
2022-12-31T10:19:51.052Z,1001.89
2022-12-31T10:20:51.429Z,1001.88
2022-12-31T10:21:51.101Z,1001.81
2022-12-31T10:22:51.049Z,1001.84
2022-12-31T10:23:51.089Z,1001.96
2022-12-31T10:24:51.161Z,1001.93
2022-12-31T10:25:51.143Z,1001.91
2022-12-31T10:26:53.389Z,1001.87
2022-12-31T10:27:50.969Z,1001.90
2022-12-31T10:28:51.008Z,1001.96
2022-12-31T10:29:51.056Z,1001.85
2022-12-31T10:30:51.038Z,1001.86
2022-12-31T10:31:51.003Z,1001.88
2022-12-31T10:32:53.809Z,1001.90
2022-12-31T10:37:54.891Z,1001.94
2022-12-31T10:38:52.400Z,1001.92
2022-12-31T10:39:53.051Z,1001.89
2022-12-31T10:40:59.635Z,1001.93
2022-12-31T10:41:52.478Z,1001.92
2022-12-31T10:42:53.722Z,1001.80
2022-12-31T10:43:52.497Z,1001.90
2022-12-31T10:44:52.365Z,1001.85
2022-12-31T10:50:57.182Z,1002.08
2022-12-31T10:51:57.188Z,1002.08
2022-12-31T10:52:57.204Z,1002.08
2022-12-31T10:53:57.160Z,1002.07
2022-12-31T10:54:57.166Z,1002.13
2022-12-31T10:55:57.125Z,1002.10
2022-12-31T10:56:57.104Z,1002.14
2022-12-31T10:58:02.008Z,1002.14
2022-12-31T10:58:58.124Z,1002.21
2022-12-31T10:59:57.095Z,1002.21
2022-12-31T11:00:57.098Z,1002.23
2022-12-31T11:01:57.198Z,1002.33
2022-12-31T11:02:57.120Z,1002.33
2022-12-31T11:03:57.049Z,1002.41
2022-12-31T11:04:57.020Z,1002.42
2022-12-31T11:05:57.021Z,1002.43
2022-12-31T11:06:57.016Z,1002.37
2022-12-31T11:07:56.971Z,1002.39
2022-12-31T11:08:56.959Z,1002.44
2022-12-31T11:09:56.972Z,1002.45
2022-12-31T11:10:56.958Z,1002.44
2022-12-31T11:11:56.941Z,1002.44
2022-12-31T11:12:56.929Z,1002.42
2022-12-31T11:13:56.917Z,1002.42
2022-12-31T11:14:56.922Z,1002.45
2022-12-31T11:15:56.908Z,1002.46
2022-12-31T11:16:56.893Z,1002.43
2022-12-31T11:17:56.876Z,1002.49
2022-12-31T11:18:56.903Z,1002.48
2022-12-31T11:19:56.841Z,1002.42
2022-12-31T11:20:56.851Z,1002.48
2022-12-31T11:21:56.882Z,1002.51
2022-12-31T11:22:56.867Z,1002.57
2022-12-31T11:23:56.795Z,1002.51
2022-12-31T11:24:56.841Z,1002.57
2022-12-31T11:25:56.840Z,1002.44
2022-12-31T11:26:56.779Z,1002.51
2022-12-31T11:27:56.785Z,1002.54
2022-12-31T11:28:56.782Z,1002.48
2022-12-31T11:29:56.809Z,1002.54
2022-12-31T11:30:56.751Z,1002.48
2022-12-31T11:31:56.761Z,1002.46
2022-12-31T11:32:56.721Z,1002.44
2022-12-31T11:33:56.724Z,1002.44
2022-12-31T11:34:56.706Z,1002.46
2022-12-31T11:35:56.671Z,1002.48
2022-12-31T11:36:56.674Z,1002.48
2022-12-31T11:37:56.679Z,1002.44
2022-12-31T11:38:56.692Z,1002.49
2022-12-31T11:39:56.617Z,1002.51
2022-12-31T11:40:56.603Z,1002.51
2022-12-31T11:41:56.659Z,1002.55
2022-12-31T11:42:56.616Z,1002.47
2022-12-31T11:43:56.591Z,1002.47
2022-12-31T11:44:56.618Z,1002.51
2022-12-31T11:45:56.567Z,1002.45
2022-12-31T11:46:56.568Z,1002.44
2022-12-31T11:48:29.274Z,1002.42
2022-12-31T11:48:57.540Z,1002.44
2022-12-31T11:49:56.509Z,1002.41
2022-12-31T11:50:56.502Z,1002.47
2022-12-31T11:51:56.536Z,1002.34
2022-12-31T11:52:56.503Z,1002.34
2022-12-31T11:53:56.770Z,1002.38
2022-12-31T11:54:56.477Z,1002.35
2022-12-31T11:55:56.445Z,1002.39
2022-12-31T11:56:56.458Z,1002.39
2022-12-31T11:57:56.465Z,1002.36
2022-12-31T11:58:56.430Z,1002.37
2022-12-31T11:59:56.419Z,1002.38
2022-12-31T12:00:56.784Z,1002.41
2022-12-31T12:01:56.444Z,1002.43
2022-12-31T12:02:56.409Z,1002.41
2022-12-31T12:03:56.388Z,1002.44
2022-12-31T12:04:56.376Z,1002.45
2022-12-31T12:05:56.336Z,1002.53
2022-12-31T12:06:56.328Z,1002.41
2022-12-31T12:07:56.307Z,1002.46
2022-12-31T12:08:56.313Z,1002.45
2022-12-31T12:09:56.304Z,1002.40
2022-12-31T12:10:56.301Z,1002.49
2022-12-31T12:11:56.273Z,1002.49
2022-12-31T12:12:56.272Z,1002.42
2022-12-31T12:13:56.258Z,1002.41
2022-12-31T12:14:56.247Z,1002.49
2022-12-31T12:15:56.299Z,1002.37
2022-12-31T12:17:00.855Z,1002.40
2022-12-31T12:17:57.215Z,1002.44
2022-12-31T12:18:56.207Z,1002.37
2022-12-31T12:19:56.176Z,1002.44
2022-12-31T12:20:56.184Z,1002.45
2022-12-31T12:21:56.159Z,1002.44
2022-12-31T12:22:56.166Z,1002.47
2022-12-31T12:23:56.135Z,1002.44
2022-12-31T12:24:56.136Z,1002.26
2022-12-31T12:25:56.175Z,1002.36
2022-12-31T12:26:56.101Z,1002.38
2022-12-31T12:27:56.470Z,1002.38
2022-12-31T12:28:56.100Z,1002.40
2022-12-31T12:29:56.083Z,1002.38
2022-12-31T12:30:56.129Z,1002.39
2022-12-31T12:31:56.064Z,1002.42
2022-12-31T12:32:56.052Z,1002.33
2022-12-31T12:33:56.044Z,1002.31
2022-12-31T12:34:56.029Z,1002.35
2022-12-31T12:35:56.020Z,1002.40
2022-12-31T12:36:56.017Z,1002.31
2022-12-31T12:37:56.012Z,1002.33
2022-12-31T12:38:56.043Z,1002.25
2022-12-31T12:39:55.965Z,1002.39
2022-12-31T12:40:56.009Z,1002.41
2022-12-31T12:41:55.944Z,1002.47
2022-12-31T12:42:55.946Z,1002.39
2022-12-31T12:43:55.923Z,1002.37
2022-12-31T12:44:55.923Z,1002.31
2022-12-31T12:45:55.913Z,1002.38
2022-12-31T12:46:55.925Z,1002.34
2022-12-31T12:47:55.869Z,1002.32
2022-12-31T12:48:55.850Z,1002.31
2022-12-31T12:49:55.872Z,1002.34
2022-12-31T12:50:55.863Z,1002.34
2022-12-31T12:51:55.872Z,1002.43
2022-12-31T12:52:59.406Z,1002.38
2022-12-31T12:53:55.823Z,1002.41
2022-12-31T12:54:55.822Z,1002.37
2022-12-31T12:55:55.792Z,1002.25
2022-12-31T12:56:55.792Z,1002.25
2022-12-31T12:57:55.776Z,1002.46
2022-12-31T12:58:55.772Z,1002.26
2022-12-31T12:59:55.753Z,1002.22
2022-12-31T13:00:55.807Z,1002.27
2022-12-31T13:01:55.947Z,1002.36
2022-12-31T13:02:55.778Z,1002.26
2022-12-31T13:04:32.359Z,1002.25
2022-12-31T13:04:56.777Z,1002.22
2022-12-31T13:05:55.693Z,1002.19
2022-12-31T13:06:55.649Z,1002.27
2022-12-31T13:07:55.663Z,1002.26
2022-12-31T13:08:55.663Z,1002.22
2022-12-31T13:09:55.911Z,1002.24
2022-12-31T13:10:55.618Z,1002.13
2022-12-31T13:11:55.619Z,1002.24
2022-12-31T13:13:56.616Z,1002.22
2022-12-31T13:14:55.619Z,1002.24
2022-12-31T13:15:55.598Z,1002.26
2022-12-31T13:16:55.564Z,1002.24
2022-12-31T13:18:01.270Z,1002.27
2022-12-31T13:18:56.584Z,1002.33
2022-12-31T13:19:55.551Z,1002.31
2022-12-31T13:20:55.506Z,1002.34
2022-12-31T13:21:55.536Z,1002.32
2022-12-31T13:22:55.498Z,1002.34
2022-12-31T13:23:55.486Z,1002.39
2022-12-31T13:24:55.511Z,1002.36
2022-12-31T13:25:55.474Z,1002.53
2022-12-31T13:26:55.456Z,1002.49
2022-12-31T13:27:55.470Z,1002.53
2022-12-31T13:28:55.449Z,1002.51
2022-12-31T13:29:55.544Z,1002.64
2022-12-31T13:30:55.410Z,1002.63
2022-12-31T13:31:55.412Z,1002.58
2022-12-31T13:32:55.401Z,1002.66
2022-12-31T13:33:55.381Z,1002.62
2022-12-31T13:34:55.493Z,1002.69
2022-12-31T13:35:55.348Z,1002.72
2022-12-31T13:36:55.341Z,1002.68
2022-12-31T13:38:00.208Z,1002.69
2022-12-31T13:38:56.307Z,1002.62
2022-12-31T13:39:55.309Z,1002.74
2022-12-31T13:40:55.318Z,1002.63
2022-12-31T13:41:55.323Z,1002.65
2022-12-31T13:42:55.260Z,1002.69
2022-12-31T13:43:55.276Z,1002.67
2022-12-31T13:44:55.289Z,1002.61
2022-12-31T13:45:55.333Z,1002.67
2022-12-31T13:46:55.243Z,1002.69
2022-12-31T13:47:55.212Z,1002.65
2022-12-31T13:48:55.209Z,1002.62
2022-12-31T13:49:55.477Z,1002.69
2022-12-31T13:50:55.227Z,1002.66
2022-12-31T13:51:55.163Z,1002.61
2022-12-31T13:52:55.165Z,1002.61
2022-12-31T13:53:55.175Z,1002.66
2022-12-31T13:54:55.143Z,1002.78
2022-12-31T13:55:57.036Z,1002.76
2022-12-31T13:56:55.106Z,1002.76